Time;durP1;ratioP1;P1;durP2;ratioP2;P2;SDS_P1;SDS_P2;PMS_P1;PMS_P2;Temp;Humidity;BMP_temperature;BMP_pressure;BME280_temperature;BME280_humidity;BME280_pressure;Samples;Min_cycle;Max_cycle;Signal;HPM_P1;HPM_P2
2021/07/31 00:01:15;;;;;;;;;;;;;;;21.57;57.26;97386.41;1732599;82;25384;-87
2021/07/31 00:03:44;;;;;;;;;;;;;;;21.55;57.32;97384.44;1729522;82;20298;-86
2021/07/31 00:06:10;;;;;;;;;;;;;;;21.50;57.39;97392.22;1728914;82;24736;-86
2021/07/31 00:08:36;;;;;;;;;;;;;;;21.43;57.47;97384.74;1732287;82;21935;-86
2021/07/31 00:11:02;;;;;;;;;;;;;;;21.39;57.50;97390.95;1730659;82;26032;-85
2021/07/31 00:13:28;;;;;;;;;;;;;;;21.37;57.53;97394.35;1732102;82;24388;-88
2021/07/31 00:15:54;;;;;;;;;;;;;;;21.36;57.54;97394.54;1732181;82;20520;-88
2021/07/31 00:18:22;;;;;;;;;;;;;;;21.35;57.54;97395.05;1729728;82;24863;-88
2021/07/31 00:20:48;;;;;;;;;;;;;;;21.35;57.55;97397.71;1729986;82;22074;-88
2021/07/31 00:23:14;;;;;;;;;;;;;;;21.36;57.56;97399.87;1734302;82;21185;-88
2021/07/31 00:25:41;;;;;;;;;;;;;;;21.39;57.61;97396.79;1749193;81;20726;-88
2021/07/31 00:28:09;;;;;;;;;;;;;;;21.39;57.57;97404.27;1746825;81;20299;-88
2021/07/31 00:30:41;;;;;;;;;;;;;;;21.42;57.56;97403.06;1744086;81;24857;-88
2021/07/31 00:33:07;;;;;;;;;;;;;;;21.44;57.55;97407.69;1747310;81;21994;-88
2021/07/31 00:35:33;;;;;;;;;;;;;;;21.45;57.56;97410.63;1743419;82;26031;-89
2021/07/31 00:37:59;;;;;;;;;;;;;;;21.47;57.58;97407.27;1751328;81;20251;-89
2021/07/31 00:40:25;;;;;;;;;;;;;;;21.48;57.57;97416.39;1742524;81;20289;-89
2021/07/31 00:42:51;;;;;;;;;;;;;;;21.48;57.62;97411.58;1745831;81;24761;-89
2021/07/31 00:45:18;;;;;;;;;;;;;;;21.49;57.65;97411.90;1750270;81;22011;-90
2021/07/31 00:47:44;;;;;;;;;;;;;;;21.49;57.66;97411.90;1748797;81;26080;-90
2021/07/31 00:50:10;;;;;;;;;;;;;;;21.50;57.72;97409.52;1747843;81;20828;-89
2021/07/31 00:52:37;;;;;;;;;;;;;;;21.50;57.73;97416.17;1744032;81;20516;-89
2021/07/31 00:55:06;;;;;;;;;;;;;;;21.50;57.76;97415.67;1741340;81;24745;-89
2021/07/31 00:57:32;;;;;;;;;;;;;;;21.48;57.77;97403.59;1749690;81;21962;-89
2021/07/31 00:59:58;;;;;;;;;;;;;;;21.48;57.78;97406.26;1746606;81;26018;-89
2021/07/31 01:02:25;;;;;;;;;;;;;;;21.49;57.85;97403.91;1748218;81;24520;-92
2021/07/31 01:04:51;;;;;;;;;;;;;;;21.48;57.89;97406.26;1744810;81;20199;-89
2021/07/31 01:07:18;;;;;;;;;;;;;;;21.44;57.95;97407.15;1748821;81;24747;-89
2021/07/31 01:09:43;;;;;;;;;;;;;;;21.44;57.99;97402.36;1744746;81;22075;-88
2021/07/31 01:12:10;;;;;;;;;;;;;;;21.42;58.03;97401.73;1747349;81;21031;-88
2021/07/31 01:14:36;;;;;;;;;;;;;;;21.41;58.09;97401.41;1748045;81;24394;-88
2021/07/31 01:17:02;;;;;;;;;;;;;;;21.39;58.12;97399.45;1748955;81;20289;-88
2021/07/31 01:19:28;;;;;;;;;;;;;;;21.39;58.15;97400.78;1747189;81;24798;-88
2021/07/31 01:21:54;;;;;;;;;;;;;;;21.41;58.20;97392.09;1747010;82;22061;-88
2021/07/31 01:24:25;;;;;;;;;;;;;;;21.40;58.23;97391.27;1741663;81;26063;-88
2021/07/31 01:26:48;;;;;;;;;;;;;;;21.36;58.25;97384.72;1731872;82;24444;-89
2021/07/31 01:29:15;;;;;;;;;;;;;;;21.34;58.33;97379.27;1726796;82;20224;-89
2021/07/31 01:31:42;;;;;;;;;;;;;;;21.29;58.39;97379.37;1731298;82;24828;-89
2021/07/31 01:34:08;;;;;;;;;;;;;;;21.25;58.44;97381.30;1729578;82;21948;-88
2021/07/31 01:36:34;;;;;;;;;;;;;;;21.25;58.51;97377.31;1742306;82;26208;-89
2021/07/31 01:39:01;;;;;;;;;;;;;;;21.25;58.58;97370.16;1741933;82;24675;-89
2021/07/31 01:41:27;;;;;;;;;;;;;;;21.23;58.64;97366.03;1739460;81;20296;-88
2021/07/31 01:43:54;;;;;;;;;;;;;;;21.22;58.72;97367.88;1740845;82;24770;-89
2021/07/31 01:46:21;;;;;;;;;;;;;;;21.23;58.81;97371.36;1741960;82;22025;-88
2021/07/31 01:48:47;;;;;;;;;;;;;;;21.22;58.89;97361.76;1742049;82;25967;-88
2021/07/31 01:51:14;;;;;;;;;;;;;;;21.22;58.95;97363.88;1716519;82;24450;-89
2021/07/31 01:53:40;;;;;;;;;;;;;;;21.19;58.98;97364.30;1726405;82;20651;-88
2021/07/31 01:56:06;;;;;;;;;;;;;;;21.15;59.06;97361.73;1726633;82;24802;-88
2021/07/31 01:58:32;;;;;;;;;;;;;;;21.15;59.15;97360.91;1720915;82;21869;-89
2021/07/31 02:01:02;;;;;;;;;;;;;;;21.13;59.21;97362.91;1744593;82;25837;-88
2021/07/31 02:03:28;;;;;;;;;;;;;;;21.02;59.29;97350.17;1739466;82;24607;-88
2021/07/31 02:05:56;;;;;;;;;;;;;;;21.05;59.37;97355.94;1735086;82;20327;-89
2021/07/31 02:08:22;;;;;;;;;;;;;;;21.04;59.46;97357.46;1739574;82;24763;-88
2021/07/31 02:10:48;;;;;;;;;;;;;;;21.03;59.51;97351.83;1739586;82;22225;-88
2021/07/31 02:13:14;;;;;;;;;;;;;;;21.03;59.56;97350.49;1739343;82;26066;-88
2021/07/31 02:15:41;;;;;;;;;;;;;;;21.04;59.63;97348.15;1737175;82;25263;-88
2021/07/31 02:18:07;;;;;;;;;;;;;;;21.05;59.71;97343.97;1737023;82;20304;-88
2021/07/31 02:20:33;;;;;;;;;;;;;;;21.06;59.75;97350.08;1739565;82;24816;-88
2021/07/31 02:23:02;;;;;;;;;;;;;;;21.03;59.79;97351.31;1711166;82;22795;-89
2021/07/31 02:25:30;;;;;;;;;;;;;;;21.05;59.84;97356.45;1753759;80;26029;-88
2021/07/31 02:27:57;;;;;;;;;;;;;;;21.02;59.89;97363.48;1771457;80;24430;-88
2021/07/31 02:30:23;;;;;;;;;;;;;;;21.01;59.97;97363.98;1727615;80;20518;-88
2021/07/31 02:32:50;;;;;;;;;;;;;;;20.99;60.02;97362.56;1749301;81;24975;-89
2021/07/31 02:35:16;;;;;;;;;;;;;;;20.97;60.08;97366.73;1749789;81;21927;-88
2021/07/31 02:37:42;;;;;;;;;;;;;;;20.96;60.11;97366.93;1743878;81;25947;-88
2021/07/31 02:40:08;;;;;;;;;;;;;;;20.94;60.14;97369.81;1751153;81;24470;-88
2021/07/31 02:42:35;;;;;;;;;;;;;;;20.96;60.20;97362.94;1749660;81;20215;-89
2021/07/31 02:45:01;;;;;;;;;;;;;;;20.96;60.23;97361.61;1751328;81;20226;-88
2021/07/31 02:47:27;;;;;;;;;;;;;;;21.00;60.29;97361.55;1742469;82;21978;-88
2021/07/31 02:49:53;;;;;;;;;;;;;;;21.02;60.35;97370.95;1736550;82;26026;-89
2021/07/31 02:52:20;;;;;;;;;;;;;;;21.03;60.40;97365.95;1766498;80;24460;-88
2021/07/31 02:54:46;;;;;;;;;;;;;;;21.02;60.40;97364.30;1765515;80;20423;-88
2021/07/31 02:57:12;;;;;;;;;;;;;;;21.02;60.41;97362.15;1765429;80;25496;-88
2021/07/31 02:59:38;;;;;;;;;;;;;;;21.00;60.43;97365.00;1767466;80;20810;-88
2021/07/31 03:02:04;;;;;;;;;;;;;;;21.00;60.50;97366.33;1771580;80;21166;-88
2021/07/31 03:04:30;;;;;;;;;;;;;;;20.98;60.53;97364.39;1774087;79;24474;-88
2021/07/31 03:07:01;;;;;;;;;;;;;;;20.95;60.59;97362.11;1767651;79;20279;-88
2021/07/31 03:09:26;;;;;;;;;;;;;;;20.96;60.66;97359.77;1765023;79;24996;-88
2021/07/31 03:11:52;;;;;;;;;;;;;;;20.98;60.73;97359.08;1768808;80;21953;-88
2021/07/31 03:14:18;;;;;;;;;;;;;;;21.00;60.81;97363.67;1768402;80;20774;-88
2021/07/31 03:16:45;;;;;;;;;;;;;;;21.04;60.87;97363.61;1758396;79;25360;-89
2021/07/31 03:19:11;;;;;;;;;;;;;;;21.01;60.90;97359.17;1754212;81;20285;-89
2021/07/31 03:21:37;;;;;;;;;;;;;;;21.04;60.96;97363.61;1769159;80;24778;-89
2021/07/31 03:24:06;;;;;;;;;;;;;;;21.05;60.99;97363.09;1769727;80;21954;-89
2021/07/31 03:26:35;;;;;;;;;;;;;;;21.08;61.06;97365.34;1741496;80;26018;-89
2021/07/31 03:29:01;;;;;;;;;;;;;;;21.08;61.07;97360.84;1761653;80;24493;-88
2021/07/31 03:31:28;;;;;;;;;;;;;;;21.09;61.10;97369.14;1760476;79;20294;-88
2021/07/31 03:33:54;;;;;;;;;;;;;;;21.08;61.13;97367.50;1771181;79;24744;-88
2021/07/31 03:36:20;;;;;;;;;;;;;;;21.09;61.15;97370.48;1765857;80;22038;-88
2021/07/31 03:38:49;;;;;;;;;;;;;;;21.08;61.17;97369.34;1765082;80;26107;-89
2021/07/31 03:41:15;;;;;;;;;;;;;;;21.09;61.19;97369.14;1766047;79;25326;-89
2021/07/31 03:43:42;;;;;;;;;;;;;;;21.12;61.26;97371.91;1756246;80;20141;-88
2021/07/31 03:46:08;;;;;;;;;;;;;;;21.13;61.30;97369.05;1715006;82;20288;-89
2021/07/31 03:48:37;;;;;;;;;;;;;;;21.13;61.35;97366.39;1729049;80;22072;-88
2021/07/31 03:51:03;;;;;;;;;;;;;;;21.10;61.38;97365.98;1738332;82;26633;-89
2021/07/31 03:53:29;;;;;;;;;;;;;;;21.06;61.41;97367.38;1761227;80;24415;-89
2021/07/31 03:55:55;;;;;;;;;;;;;;;21.02;61.46;97364.30;1768526;80;20251;-88
2021/07/31 03:58:21;;;;;;;;;;;;;;;21.00;61.54;97370.86;1765575;80;24780;-89
2021/07/31 04:00:47;;;;;;;;;;;;;;;20.98;61.60;97385.67;1772901;80;21615;-88
2021/07/31 04:03:13;;;;;;;;;;;;;;;20.98;61.69;97386.19;1757413;81;26048;-89
2021/07/31 04:05:39;;;;;;;;;;;;;;;21.02;61.77;97392.23;1756982;81;24466;-88
2021/07/31 04:08:06;;;;;;;;;;;;;;;21.06;61.87;97397.47;1727974;81;32621;-88
2021/07/31 04:10:33;;;;;;;;;;;;;;;21.11;61.98;97403.01;1757863;80;20211;-88
2021/07/31 04:12:59;;;;;;;;;;;;;;;21.14;62.03;97404.47;1763706;80;21988;-88
2021/07/31 04:15:31;;;;;;;;;;;;;;;21.14;62.06;97407.98;1754370;81;26034;-85
2021/07/31 04:17:57;;;;;;;;;;;;;;;21.15;62.15;97412.29;1769889;80;24494;-87
2021/07/31 04:20:23;;;;;;;;;;;;;;;21.16;62.21;97419.26;1734238;80;20260;-87
2021/07/31 04:22:49;;;;;;;;;;;;;;;21.16;62.28;97421.09;1732325;82;24746;-87
2021/07/31 04:25:26;;;;;;;;;;;;;;;21.16;62.34;97427.24;1727695;82;20895;-86
2021/07/31 04:27:58;;;;;;;;;;;;;;;21.16;62.41;97434.41;1749559;82;27006;-86
2021/07/31 04:30:25;;;;;;;;;;;;;;;21.15;62.50;97442.89;1751178;82;24731;-88
2021/07/31 04:32:55;;;;;;;;;;;;;;;21.15;62.58;97440.73;1746769;81;20294;-87
2021/07/31 04:35:22;;;;;;;;;;;;;;;21.11;62.66;97440.25;1748267;81;24815;-87
2021/07/31 04:37:55;;;;;;;;;;;;;;;21.13;62.75;97442.73;1762821;80;22127;-87
2021/07/31 04:40:23;;;;;;;;;;;;;;;21.13;62.83;97444.06;1768045;80;21755;-87
2021/07/31 04:42:50;;;;;;;;;;;;;;;21.12;62.90;97449.06;1716674;81;20878;-87
2021/07/31 04:45:16;;;;;;;;;;;;;;;21.12;62.96;97458.38;1758744;81;20292;-87
2021/07/31 04:47:43;;;;;;;;;;;;;;;21.09;63.02;97458.28;1759441;81;20268;-89
2021/07/31 04:50:14;;;;;;;;;;;;;;;21.06;63.16;97463.97;1765694;79;22026;-88
2021/07/31 04:52:38;;;;;;;;;;;;;;;21.04;63.37;97459.89;1760755;81;26832;-88
2021/07/31 04:55:04;;;;;;;;;;;;;;;20.99;63.59;97469.80;1752491;81;24597;-88
2021/07/31 04:57:30;;;;;;;;;;;;;;;20.94;63.83;97472.22;1753822;81;20205;-88
2021/07/31 04:59:58;;;;;;;;;;;;;;;20.91;64.07;97475.25;1758916;80;20181;-87
2021/07/31 05:02:25;;;;;;;;;;;;;;;20.87;64.29;97476.67;1750640;80;22183;-89
2021/07/31 05:04:51;;;;;;;;;;;;;;;20.86;64.51;97475.84;1759643;80;26167;-89
2021/07/31 05:07:17;;;;;;;;;;;;;;;20.87;64.74;97476.67;1717615;82;20303;-88
2021/07/31 05:09:43;;;;;;;;;;;;;;;20.80;65.00;97477.13;1715711;82;20883;-88
2021/07/31 05:12:09;;;;;;;;;;;;;;;20.74;65.23;97473.41;1716983;82;20333;-89
2021/07/31 05:14:35;;;;;;;;;;;;;;;20.72;65.46;97478.12;1713379;82;22122;-89
2021/07/31 05:17:01;;;;;;;;;;;;;;;20.72;65.67;97484.77;1756575;80;25980;-89
2021/07/31 05:19:27;;;;;;;;;;;;;;;20.72;65.84;97493.25;1736705;81;24603;-89
2021/07/31 05:21:56;;;;;;;;;;;;;;;20.70;66.03;97492.61;1760627;80;20233;-89
2021/07/31 05:24:22;;;;;;;;;;;;;;;20.70;66.20;97493.94;1754898;80;24811;-89
2021/07/31 05:26:50;;;;;;;;;;;;;;;20.66;66.37;97496.17;1754205;80;22102;-89
2021/07/31 05:29:16;;;;;;;;;;;;;;;20.66;66.51;97498.83;1764152;80;26218;-89
2021/07/31 05:31:42;;;;;;;;;;;;;;;20.68;66.69;97497.28;1767492;79;20252;-89
2021/07/31 05:34:08;;;;;;;;;;;;;;;20.68;66.82;97495.95;1772109;80;20237;-88
2021/07/31 05:36:39;;;;;;;;;;;;;;;20.67;66.93;97500.98;1767629;80;24793;-89
2021/07/31 05:39:04;;;;;;;;;;;;;;;20.66;67.07;97506.80;1763830;80;21967;-89
2021/07/31 05:41:30;;;;;;;;;;;;;;;20.68;67.19;97507.92;1765120;80;26749;-88
2021/07/31 05:43:57;;;;;;;;;;;;;;;20.71;67.31;97516.35;1767087;80;24528;-89
2021/07/31 05:46:23;;;;;;;;;;;;;;;20.70;67.45;97512.05;1773654;80;20499;-88
2021/07/31 05:48:54;;;;;;;;;;;;;;;20.73;67.60;97512.97;1767064;79;24894;-88
2021/07/31 05:51:17;;;;;;;;;;;;;;;20.75;67.72;97511.45;1765890;80;22159;-89
2021/07/31 05:53:43;;;;;;;;;;;;;;;20.78;67.87;97511.09;1770747;80;25865;-88
2021/07/31 05:56:09;;;;;;;;;;;;;;;20.82;68.01;97506.52;1763108;80;24498;-88
2021/07/31 05:58:36;;;;;;;;;;;;;;;20.87;68.14;97513.40;1760900;80;20315;-88
2021/07/31 06:01:05;;;;;;;;;;;;;;;20.88;68.27;97506.25;1774861;79;24791;-88
2021/07/31 06:03:33;;;;;;;;;;;;;;;20.90;68.36;97506.85;1763455;80;22434;-88
2021/07/31 06:06:00;;;;;;;;;;;;;;;20.93;68.53;97494.51;1771623;79;26026;-88
2021/07/31 06:08:35;;;;;;;;;;;;;;;20.94;68.65;97500.15;1766087;79;25035;-89
2021/07/31 06:11:03;;;;;;;;;;;;;;;20.96;68.75;97498.09;1771308;80;20244;-88
2021/07/31 06:13:30;;;;;;;;;;;;;;;20.96;68.83;97508.73;1762612;80;24880;-88
2021/07/31 06:16:03;;;;;;;;;;;;;;;20.92;68.92;97507.49;1764670;80;21945;-89
2021/07/31 06:18:26;;;;;;;;;;;;;;;20.94;69.02;97517.44;1735316;82;25950;-88
2021/07/31 06:20:52;;;;;;;;;;;;;;;20.82;69.12;97510.50;1734764;82;20936;-88
2021/07/31 06:23:18;;;;;;;;;;;;;;;20.89;69.22;97527.84;1735241;82;20342;-88
2021/07/31 06:25:44;;;;;;;;;;;;;;;20.90;69.29;97526.80;1766173;80;24719;-89
2021/07/31 06:28:11;;;;;;;;;;;;;;;20.92;69.40;97534.59;1730560;82;21984;-89
2021/07/31 06:30:37;;;;;;;;;;;;;;;20.92;69.52;97539.91;1714677;81;26919;-88
2021/07/31 06:33:03;;;;;;;;;;;;;;;20.94;69.62;97540.05;1727944;82;24411;-88
2021/07/31 06:35:29;;;;;;;;;;;;;;;20.90;69.71;97538.77;1731055;81;20322;-88
2021/07/31 06:37:55;;;;;;;;;;;;;;;20.90;69.83;97544.09;1725268;83;20811;-88
2021/07/31 06:40:21;;;;;;;;;;;;;;;20.89;69.93;97547.25;1754541;81;22033;-88
2021/07/31 06:42:47;;;;;;;;;;;;;;;20.92;70.01;97550.56;1731375;82;21718;-88
2021/07/31 06:45:15;;;;;;;;;;;;;;;20.96;70.10;97541.98;1735642;82;20286;-88
2021/07/31 06:47:41;;;;;;;;;;;;;;;20.99;70.19;97546.94;1731633;82;20206;-88
2021/07/31 06:50:10;;;;;;;;;;;;;;;21.00;70.29;97539.78;1714363;82;25163;-88
2021/07/31 06:52:37;;;;;;;;;;;;;;;21.02;70.36;97545.71;1726900;82;22057;-88
2021/07/31 06:55:03;;;;;;;;;;;;;;;21.05;70.45;97544.84;1727916;82;26068;-89
2021/07/31 06:57:29;;;;;;;;;;;;;;;21.10;70.52;97543.73;1759735;81;24258;-88
2021/07/31 06:59:55;;;;;;;;;;;;;;;21.14;70.61;97542.36;1757423;81;20765;-88
2021/07/31 07:02:21;;;;;;;;;;;;;;;21.19;70.69;97550.58;1759946;81;20250;-88
2021/07/31 07:04:47;;;;;;;;;;;;;;;21.22;70.73;97547.50;1735355;82;22159;-89
2021/07/31 07:07:15;;;;;;;;;;;;;;;21.25;70.78;97540.48;1733246;81;25941;-85
2021/07/31 07:09:41;;;;;;;;;;;;;;;21.31;70.85;97540.20;1728027;82;24401;-86
2021/07/31 07:12:13;;;;;;;;;;;;;;;21.36;70.91;97547.59;1721734;81;20818;-86
2021/07/31 07:14:39;;;;;;;;;;;;;;;21.38;70.99;97545.06;1749199;81;24822;-86
2021/07/31 07:17:07;;;;;;;;;;;;;;;21.44;71.06;97547.45;1752910;81;20208;-86
2021/07/31 07:19:33;;;;;;;;;;;;;;;21.48;71.09;97552.17;1749869;81;21112;-86
2021/07/31 07:21:59;;;;;;;;;;;;;;;21.52;71.12;97553.41;1729722;81;24506;-86
2021/07/31 07:24:26;;;;;;;;;;;;;;;21.53;71.17;97557.73;1750958;81;20167;-85
2021/07/31 07:26:56;;;;;;;;;;;;;;;21.55;71.20;97550.85;1736875;80;24815;-86
2021/07/31 07:29:23;;;;;;;;;;;;;;;21.56;71.24;97549.84;1741848;81;21979;-86
2021/07/31 07:31:49;;;;;;;;;;;;;;;21.54;71.30;97554.05;1741631;81;25994;-86
2021/07/31 07:34:15;;;;;;;;;;;;;;;21.56;71.31;97554.66;1746420;81;20848;-86
2021/07/31 07:36:41;;;;;;;;;;;;;;;21.58;71.36;97563.79;1740344;82;20233;-86
2021/07/31 07:39:07;;;;;;;;;;;;;;;21.59;71.38;97562.77;1705247;82;24652;-86
2021/07/31 07:41:33;;;;;;;;;;;;;;;21.61;71.38;97555.39;1743703;81;22207;-86
2021/07/31 07:43:59;;;;;;;;;;;;;;;21.64;71.37;97557.67;1756348;81;26147;-84
2021/07/31 07:46:26;;;;;;;;;;;;;;;21.68;71.41;97557.58;1745079;81;20232;-85
2021/07/31 07:48:52;;;;;;;;;;;;;;;21.70;71.41;97554.22;1753581;81;20251;-84
2021/07/31 07:51:18;;;;;;;;;;;;;;;21.73;71.45;97551.15;1748371;81;24974;-86
2021/07/31 07:53:45;;;;;;;;;;;;;;;21.73;71.45;97552.98;1750214;81;22736;-86
2021/07/31 07:56:11;;;;;;;;;;;;;;;21.77;71.46;97548.89;1746159;81;25967;-86
2021/07/31 07:58:37;;;;;;;;;;;;;;;21.79;71.46;97546.36;1751348;81;24713;-86
2021/07/31 08:01:07;;;;;;;;;;;;;;;21.85;71.48;97549.56;1748196;81;20283;-86
2021/07/31 08:03:31;;;;;;;;;;;;;;;21.90;71.51;97552.45;1748221;81;25484;-86
2021/07/31 08:05:57;;;;;;;;;;;;;;;21.87;71.46;97550.20;1749304;81;21966;-90
2021/07/31 08:08:23;;;;;;;;;;;;;;;21.89;71.46;97549.97;1745133;81;26077;-90
2021/07/31 08:10:51;;;;;;;;;;;;;;;21.92;71.41;97555.74;1742543;81;24490;-90
2021/07/31 08:13:17;;;;;;;;;;;;;;;21.96;71.43;97557.01;1738667;81;20282;-89
2021/07/31 08:15:43;;;;;;;;;;;;;;;21.98;71.43;97552.83;1748092;81;20741;-89
2021/07/31 08:18:10;;;;;;;;;;;;;;;22.00;71.38;97552.09;1711442;81;20311;-89
2021/07/31 08:20:40;;;;;;;;;;;;;;;22.02;71.36;97549.55;1747811;81;26667;-90
2021/07/31 08:23:06;;;;;;;;;;;;;;;22.02;71.28;97546.06;1741757;82;24423;-89
2021/07/31 08:25:31;;;;;;;;;;;;;;;22.03;71.23;97551.70;1753034;81;20839;-89
2021/07/31 08:27:57;;;;;;;;;;;;;;;22.03;71.18;97555.20;1770401;80;20234;-89
2021/07/31 08:30:23;;;;;;;;;;;;;;;21.99;71.10;97553.93;1764994;80;21095;-89
2021/07/31 08:32:49;;;;;;;;;;;;;;;21.99;71.07;97551.77;1774407;79;21000;-90
2021/07/31 08:35:15;;;;;;;;;;;;;;;21.99;71.03;97553.93;1768111;80;20463;-90
2021/07/31 08:37:41;;;;;;;;;;;;;;;22.04;71.07;97556.81;1776151;80;20821;-90
2021/07/31 08:40:09;;;;;;;;;;;;;;;22.08;71.06;97554.08;1773903;80;24826;-90
2021/07/31 08:42:36;;;;;;;;;;;;;;;22.13;71.09;97547.31;1767361;80;21905;-91
2021/07/31 08:45:04;;;;;;;;;;;;;;;22.16;71.05;97555.72;1766730;80;26151;-90
2021/07/31 08:47:32;;;;;;;;;;;;;;;22.19;71.06;97550.52;1732656;80;24426;-90
2021/07/31 08:49:58;;;;;;;;;;;;;;;22.17;71.04;97545.88;1762438;80;20214;-90
2021/07/31 08:52:25;;;;;;;;;;;;;;;22.15;71.02;97548.74;1764948;80;24995;-87
2021/07/31 08:54:57;;;;;;;;;;;;;;;22.18;70.98;97544.86;1769877;80;21903;-86
2021/07/31 08:57:26;;;;;;;;;;;;;;;22.20;71.00;97538.83;1772223;80;25976;-86
2021/07/31 08:59:53;;;;;;;;;;;;;;;22.27;71.05;97544.47;1768349;80;25571;-88
2021/07/31 09:02:20;;;;;;;;;;;;;;;22.36;71.09;97546.45;1761863;80;20471;-87
2021/07/31 09:04:49;;;;;;;;;;;;;;;22.45;71.10;97541.22;1746032;80;24829;-88
2021/07/31 09:07:15;;;;;;;;;;;;;;;22.61;71.14;97541.33;1767567;80;21284;-87
2021/07/31 09:09:47;;;;;;;;;;;;;;;22.76;71.17;97535.30;1775020;79;21199;-87
2021/07/31 09:12:13;;;;;;;;;;;;;;;22.87;71.23;97533.34;1771645;80;24430;-86
2021/07/31 09:14:42;;;;;;;;;;;;;;;23.00;71.19;97532.52;1763216;80;20562;-86
2021/07/31 09:17:10;;;;;;;;;;;;;;;23.16;71.20;97522.23;1762899;80;24740;-86
2021/07/31 09:19:38;;;;;;;;;;;;;;;23.34;71.13;97522.91;1767705;80;22046;-86
2021/07/31 09:22:06;;;;;;;;;;;;;;;23.50;71.06;97514.46;1767757;80;26054;-87
2021/07/31 09:24:32;;;;;;;;;;;;;;;23.60;70.90;97511.33;1753261;81;24306;-86
2021/07/31 09:26:58;;;;;;;;;;;;;;;23.76;70.78;97519.69;1766401;79;20283;-86
2021/07/31 09:29:26;;;;;;;;;;;;;;;23.88;70.59;97515.02;1762742;81;24644;-86
2021/07/31 09:31:58;;;;;;;;;;;;;;;23.94;70.37;97510.16;1756687;81;22041;-86
2021/07/31 09:34:29;;;;;;;;;;;;;;;23.99;70.23;97499.63;1754990;81;25983;-86
2021/07/31 09:37:08;;;;;;;;;;;;;;;24.09;70.11;97496.80;1757215;81;24610;-86
2021/07/31 09:39:51;;;;;;;;;;;;;;;24.18;69.98;97498.70;1757102;81;20280;-86
2021/07/31 09:42:37;;;;;;;;;;;;;;;24.31;69.86;97496.47;1755844;81;24902;-87
2021/07/31 09:45:19;;;;;;;;;;;;;;;24.35;69.62;97481.62;1749271;81;21925;-87
2021/07/31 09:48:04;;;;;;;;;;;;;;;24.41;69.38;97486.92;1740823;81;26631;-86
2021/07/31 09:50:38;;;;;;;;;;;;;;;24.46;69.15;97488.94;1734076;81;24614;-86
2021/07/31 09:53:11;;;;;;;;;;;;;;;24.50;68.90;97488.80;1737324;81;20292;-86
2021/07/31 09:55:55;;;;;;;;;;;;;;;24.62;68.78;97487.06;1752791;81;24958;-86
2021/07/31 09:58:23;;;;;;;;;;;;;;;24.69;68.60;97482.48;1708907;81;20183;-88
2021/07/31 10:00:51;;;;;;;;;;;;;;;24.81;68.44;97483.92;1729135;82;26064;-88
2021/07/31 10:03:17;;;;;;;;;;;;;;;24.81;68.22;97482.06;1731532;82;25158;-87
2021/07/31 10:05:49;;;;;;;;;;;;;;;24.88;68.06;97490.86;1735688;82;20242;-87
2021/07/31 10:08:25;;;;;;;;;;;;;;;24.96;67.95;97491.11;1732878;82;24756;-87
2021/07/31 10:10:51;;;;;;;;;;;;;;;24.97;67.74;97492.75;1733218;82;22921;-87
2021/07/31 10:13:25;;;;;;;;;;;;;;;24.96;67.47;97486.57;1734039;82;20959;-87
2021/07/31 10:15:53;;;;;;;;;;;;;;;25.05;67.35;97484.93;1710175;82;25263;-90
2021/07/31 10:18:23;;;;;;;;;;;;;;;25.06;67.05;97482.04;1727240;82;20275;-90
2021/07/31 10:20:50;;;;;;;;;;;;;;;25.09;66.82;97489.64;1732105;82;24791;-87
2021/07/31 10:23:41;;;;;;;;;;;;;;;25.17;66.70;97492.02;1730525;82;22261;-87
2021/07/31 10:26:08;;;;;;;;;;;;;;;25.28;66.65;97484.58;1731703;81;26019;-87
2021/07/31 10:28:38;;;;;;;;;;;;;;;25.45;66.58;97481.30;1730099;82;24516;-90
2021/07/31 10:31:08;;;;;;;;;;;;;;;25.62;66.56;97479.67;1731710;82;20154;-91
2021/07/31 10:33:45;;;;;;;;;;;;;;;25.70;66.27;97468.63;1716237;82;24783;-90
2021/07/31 10:36:29;;;;;;;;;;;;;;;25.77;66.07;97473.39;1731038;82;21903;-90
2021/07/31 10:38:56;;;;;;;;;;;;;;;25.80;65.82;97467.05;1731013;82;26072;-91
2021/07/31 10:41:40;;;;;;;;;;;;;;;25.82;65.56;97466.83;1685631;83;24450;-91
2021/07/31 10:44:08;;;;;;;;;;;;;;;25.77;65.31;97461.33;1710089;82;20271;-91
2021/07/31 10:46:34;;;;;;;;;;;;;;;25.80;65.09;97458.20;1730881;82;24841;-91
2021/07/31 10:49:19;;;;;;;;;;;;;;;25.83;64.96;97464.44;1732845;82;20853;-91
2021/07/31 10:51:45;;;;;;;;;;;;;;;25.92;64.86;97468.43;1732948;82;26029;-91
2021/07/31 10:54:11;;;;;;;;;;;;;;;26.02;64.68;97470.59;1727041;82;24429;-91
2021/07/31 10:56:56;;;;;;;;;;;;;;;26.10;64.58;97472.92;1732523;82;20288;-91
2021/07/31 10:59:22;;;;;;;;;;;;;;;26.11;64.40;97463.84;1728338;82;24844;-91
2021/07/31 11:01:49;;;;;;;;;;;;;;;26.15;64.18;97472.53;1726849;82;22203;-90
2021/07/31 11:04:33;;;;;;;;;;;;;;;26.20;64.02;97468.64;1730146;82;26009;-90
2021/07/31 11:07:11;;;;;;;;;;;;;;;26.27;63.91;97466.41;1732649;82;24480;-91
2021/07/31 11:09:37;;;;;;;;;;;;;;;26.40;63.84;97468.38;1730939;82;20253;-91
2021/07/31 11:12:24;;;;;;;;;;;;;;;26.47;63.63;97465.04;1728591;82;24785;-88
2021/07/31 11:14:52;;;;;;;;;;;;;;;26.53;63.42;97461.44;1731229;82;22022;-89
2021/07/31 11:17:18;;;;;;;;;;;;;;;26.56;63.21;97465.53;1723471;82;26118;-88
2021/07/31 11:19:43;;;;;;;;;;;;;;;26.65;63.10;97462.79;1732719;82;20240;-92
2021/07/31 11:22:09;;;;;;;;;;;;;;;26.69;62.86;97457.77;1733404;82;20195;-91
2021/07/31 11:24:36;;;;;;;;;;;;;;;26.73;62.70;97461.64;1733544;82;25471;-91
2021/07/31 11:27:04;;;;;;;;;;;;;;;26.78;62.49;97461.23;1733318;82;21984;-91
2021/07/31 11:29:32;;;;;;;;;;;;;;;26.85;62.26;97461.91;1705794;82;21792;-90
2021/07/31 11:32:03;;;;;;;;;;;;;;;26.94;62.01;97465.92;1733103;82;24538;-89
2021/07/31 11:34:37;;;;;;;;;;;;;;;27.04;61.83;97463.45;1727520;82;20174;-90
2021/07/31 11:37:09;;;;;;;;;;;;;;;27.10;61.56;97456.85;1727591;82;24776;-89
2021/07/31 11:39:36;;;;;;;;;;;;;;;27.16;61.41;97460.77;1731345;82;21957;-89
2021/07/31 11:42:03;;;;;;;;;;;;;;;27.23;61.18;97460.61;1732032;82;25990;-89
2021/07/31 11:44:34;;;;;;;;;;;;;;;27.29;60.82;97461.01;1728300;82;24128;-89
2021/07/31 11:47:00;;;;;;;;;;;;;;;27.36;60.45;97454.98;1728029;82;20224;-89
2021/07/31 11:49:31;;;;;;;;;;;;;;;27.44;60.16;97459.45;1731272;82;24866;-90
2021/07/31 11:51:58;;;;;;;;;;;;;;;27.47;59.90;97453.61;1732714;82;22079;-90
2021/07/31 11:54:25;;;;;;;;;;;;;;;27.47;59.59;97456.83;1730553;82;26921;-89
2021/07/31 11:56:52;;;;;;;;;;;;;;;27.47;59.25;97457.64;1732717;82;24680;-90
2021/07/31 11:59:23;;;;;;;;;;;;;;;27.48;58.89;97463.31;1731204;82;20332;-90
2021/07/31 12:01:53;;;;;;;;;;;;;;;27.51;58.67;97459.34;1730182;82;21774;-90
2021/07/31 12:04:23;;;;;;;;;;;;;;;27.58;58.51;97460.56;1733412;82;22187;-91
2021/07/31 12:06:58;;;;;;;;;;;;;;;27.51;58.28;97458.01;1713252;82;26783;-90
2021/07/31 12:09:33;;;;;;;;;;;;;;;27.56;58.11;97464.00;1741501;81;25385;-86
2021/07/31 12:12:07;;;;;;;;;;;;;;;27.59;57.92;97458.98;1709815;83;20555;-87
2021/07/31 12:14:42;;;;;;;;;;;;;;;27.63;57.77;97457.45;1729529;82;24748;-90
2021/07/31 12:17:13;;;;;;;;;;;;;;;27.73;57.63;97448.23;1739152;82;22051;-90
2021/07/31 12:19:49;;;;;;;;;;;;;;;27.83;57.41;97438.18;1732435;82;26818;-87
2021/07/31 12:22:17;;;;;;;;;;;;;;;27.91;57.22;97437.81;1732663;82;25090;-87
2021/07/31 12:24:44;;;;;;;;;;;;;;;28.00;57.02;97434.18;1730505;82;20228;-87
2021/07/31 12:27:10;;;;;;;;;;;;;;;28.07;56.79;97435.67;1738602;81;24897;-86
2021/07/31 12:29:43;;;;;;;;;;;;;;;28.14;56.78;97434.21;1736812;81;22951;-86
2021/07/31 12:32:25;;;;;;;;;;;;;;;28.17;56.68;97432.37;1756672;80;26021;-87
2021/07/31 12:34:52;;;;;;;;;;;;;;;28.24;56.57;97434.38;1750332;81;24459;-87
2021/07/31 12:37:19;;;;;;;;;;;;;;;28.25;56.32;97426.59;1748264;81;20217;-88
2021/07/31 12:39:46;;;;;;;;;;;;;;;28.29;56.05;97423.70;1745552;81;24755;-87
2021/07/31 12:42:12;;;;;;;;;;;;;;;28.33;55.83;97428.05;1745925;81;21953;-87
2021/07/31 12:44:39;;;;;;;;;;;;;;;28.30;55.57;97428.02;1744236;82;25810;-87
2021/07/31 12:47:06;;;;;;;;;;;;;;;28.28;55.49;97426.09;1749642;81;25227;-87
2021/07/31 12:49:33;;;;;;;;;;;;;;;28.29;55.48;97427.20;1746810;81;20282;-87
2021/07/31 12:51:59;;;;;;;;;;;;;;;28.26;55.48;97425.52;1741785;81;24805;-86